Terminal Aerodrome Forecast
Issued by NWS

Home | Current Version | Previous Version | Text Only | Print | Product List | Glossary On
Versions: 1 2 3 4 5 6 7 8 9 10 11 12 13 14 15 16 17 18 19
000
FTUS43 KABR 230535
TAFMBG
TAF
KMBG 230535Z 2306/2406 31004KT 3SM -SN OVC010
     FM230700 32005KT P6SM OVC015
     FM231500 32008KT P6SM SKC
     FM240200 16004KT P6SM SCT250=

USA.gov is the U.S. government's official web portal to all federal, state and local government web resources and services.